Time;durP1;ratioP1;P1;durP2;ratioP2;P2;SDS_P1;SDS_P2;PMS_P1;PMS_P2;Temp;Humidity;BMP_temperature;BMP_pressure;BME280_temperature;BME280_humidity;BME280_pressure;Samples;Min_cycle;Max_cycle;Signal;HPM_P1;HPM_P2
2021/10/31 00:01:35;;;;;;;18.00;8.60;;;13.40;99.90;;;;;;5074658;28;20202;-90
2021/10/31 00:04:01;;;;;;;20.80;9.47;;;13.40;99.90;;;;;;5058290;28;20201;-89
2021/10/31 00:06:26;;;;;;;17.70;9.73;;;13.40;99.90;;;;;;5074405;28;20206;-89
2021/10/31 00:08:52;;;;;;;19.47;9.97;;;13.40;99.90;;;;;;5077918;28;20180;-90
2021/10/31 00:11:18;;;;;;;16.43;9.27;;;13.30;99.90;;;;;;5058797;28;20192;-89
2021/10/31 00:13:44;;;;;;;21.40;9.63;;;13.20;99.90;;;;;;5078727;28;20275;-90
2021/10/31 00:16:09;;;;;;;20.10;10.10;;;13.10;99.90;;;;;;5100066;28;20338;-85
2021/10/31 00:18:35;;;;;;;18.73;9.43;;;13.10;99.90;;;;;;5062008;28;20207;-89
2021/10/31 00:21:01;;;;;;;22.33;10.13;;;13.10;99.90;;;;;;5061804;28;20691;-89
2021/10/31 00:23:27;;;;;;;18.80;9.53;;;13.00;99.90;;;;;;5061805;28;20293;-90
2021/10/31 00:25:53;;;;;;;17.53;10.17;;;13.00;99.90;;;;;;5067517;28;20182;-90
2021/10/31 00:28:19;;;;;;;21.50;9.83;;;12.90;99.90;;;;;;5078769;28;20195;-90
2021/10/31 00:30:45;;;;;;;19.10;10.70;;;12.80;99.90;;;;;;5077739;28;20672;-90
2021/10/31 00:33:11;;;;;;;20.00;10.47;;;12.90;99.90;;;;;;5059449;28;20179;-89
2021/10/31 00:35:37;;;;;;;21.33;10.87;;;12.90;99.90;;;;;;5064018;28;20236;-90
2021/10/31 00:38:04;;;;;;;21.63;10.10;;;12.90;99.90;;;;;;5060195;28;20701;-88
2021/10/31 00:40:32;;;;;;;21.53;11.17;;;12.90;99.90;;;;;;5077463;28;20188;-89
2021/10/31 00:42:57;;;;;;;22.03;11.07;;;12.90;99.90;;;;;;5063298;28;20353;-89
2021/10/31 00:45:23;;;;;;;19.83;10.77;;;12.90;99.90;;;;;;5063541;28;20262;-89
2021/10/31 00:47:49;;;;;;;20.03;10.73;;;12.80;99.90;;;;;;5094859;28;20606;-89
2021/10/31 00:50:18;;;;;;;20.80;11.07;;;12.80;99.90;;;;;;5065116;28;20270;-89
2021/10/31 00:52:44;;;;;;;22.63;10.80;;;12.90;99.90;;;;;;5077805;28;20183;-90
2021/10/31 00:55:10;;;;;;;20.93;11.27;;;12.80;99.90;;;;;;5077449;28;20196;-90
2021/10/31 00:57:37;;;;;;;18.97;10.93;;;12.80;99.90;;;;;;5061844;28;20178;-90
2021/10/31 01:00:06;;;;;;;18.53;10.07;;;12.80;99.90;;;;;;5061901;28;20258;-90
2021/10/31 01:02:32;;;;;;;16.80;10.00;;;12.70;99.90;;;;;;5097525;28;20190;-89
2021/10/31 01:05:03;;;;;;;17.27;9.70;;;12.80;99.90;;;;;;5079093;28;20188;-89
2021/10/31 01:07:49;;;;;;;18.90;9.67;;;12.80;99.90;;;;;;5077230;28;20666;-89
2021/10/31 01:10:27;;;;;;;17.17;9.03;;;12.80;99.90;;;;;;5055523;28;20194;-90
2021/10/31 01:13:29;;;;;;;18.57;9.43;;;12.90;99.90;;;;;;5059416;28;20203;-89
2021/10/31 01:16:30;;;;;;;18.57;9.50;;;12.80;99.90;;;;;;5040974;28;20708;-89
2021/10/31 01:19:26;;;;;;;15.63;8.93;;;12.90;99.90;;;;;;5061616;28;20723;-89
2021/10/31 01:21:54;;;;;;;15.17;8.77;;;12.90;99.90;;;;;;5049578;28;20217;-90
2021/10/31 01:24:36;;;;;;;18.10;9.03;;;12.80;99.90;;;;;;5076942;28;20220;-89
2021/10/31 01:27:36;;;;;;;18.48;10.82;;;12.80;99.90;;;;;;5058509;28;20426;-89
2021/10/31 01:30:15;;;;;;;17.27;9.20;;;12.70;99.90;;;;;;5075408;28;20568;-89
2021/10/31 01:33:05;;;;;;;18.20;8.90;;;12.80;99.90;;;;;;5056789;28;20644;-91
2021/10/31 01:35:50;;;;;;;17.83;9.03;;;12.80;99.90;;;;;;5060332;28;20179;-90
2021/10/31 01:38:46;;;;;;;16.33;9.80;;;12.80;99.90;;;;;;5076540;28;20635;-90
2021/10/31 01:41:57;;;;;;;18.60;10.07;;;12.80;99.90;;;;;;5078118;28;20178;-89
2021/10/31 01:44:39;;;;;;;18.90;10.07;;;12.70;99.90;;;;;;5054280;28;20215;-90
2021/10/31 01:47:27;;;;;;;14.77;9.97;;;12.60;99.90;;;;;;5079500;28;20195;-90
2021/10/31 01:50:11;;;;;;;18.97;10.43;;;12.50;99.90;;;;;;5060980;28;20190;-90
2021/10/31 01:52:47;;;;;;;19.87;10.40;;;12.50;99.90;;;;;;5074790;28;20686;-90
2021/10/31 01:55:19;;;;;;;21.87;11.10;;;12.50;99.90;;;;;;5077482;28;20612;-89
2021/10/31 01:57:48;;;;;;;20.07;11.50;;;12.50;99.90;;;;;;5060702;28;20546;-90
2021/10/31 02:00:17;;;;;;;19.60;11.13;;;12.50;99.90;;;;;;5060971;28;20555;-89
2021/10/31 02:03:02;;;;;;;21.33;11.37;;;12.60;99.90;;;;;;5076780;28;20194;-88
2021/10/31 02:05:31;;;;;;;19.67;11.47;;;12.60;99.90;;;;;;5076014;28;20180;-88
2021/10/31 02:08:07;;;;;;;21.07;11.27;;;12.60;99.90;;;;;;5060459;28;20199;-88
2021/10/31 02:10:34;;;;;;;19.17;11.67;;;12.60;99.90;;;;;;5076249;28;20179;-89
2021/10/31 02:13:02;;;;;;;18.40;11.40;;;12.70;99.90;;;;;;5076128;28;20195;-88
2021/10/31 02:15:29;;;;;;;22.20;12.07;;;12.70;99.90;;;;;;5073563;28;20191;-89
2021/10/31 02:17:57;;;;;;;21.00;11.50;;;12.70;99.90;;;;;;5065249;28;20222;-88
2021/10/31 02:20:24;;;;;;;19.20;11.17;;;12.80;99.90;;;;;;5093956;28;20230;-88
2021/10/31 02:23:10;;;;;;;17.33;10.80;;;12.70;99.90;;;;;;5061029;28;20194;-88
2021/10/31 02:25:36;;;;;;;20.00;11.70;;;12.60;99.90;;;;;;5070589;28;20329;-89
2021/10/31 02:28:03;;;;;;;20.03;11.77;;;12.60;99.90;;;;;;5075667;28;20248;-90
2021/10/31 02:30:28;;;;;;;19.10;11.50;;;12.50;99.90;;;;;;5060441;28;20184;-90
2021/10/31 02:32:57;;;;;;;21.57;11.40;;;12.60;99.90;;;;;;5059967;28;20233;-89
2021/10/31 02:35:23;;;;;;;21.20;12.23;;;12.50;99.90;;;;;;5076148;28;20277;-90
2021/10/31 02:37:50;;;;;;;20.43;11.80;;;12.40;99.90;;;;;;5075936;28;20215;-89
2021/10/31 02:40:19;;;;;;;20.33;11.73;;;12.40;99.90;;;;;;5060128;28;20560;-90
2021/10/31 02:42:45;;;;;;;17.93;10.60;;;12.50;99.90;;;;;;5059213;28;20189;-90
2021/10/31 02:45:11;;;;;;;20.00;11.13;;;12.40;99.90;;;;;;5061050;28;20183;-90
2021/10/31 02:47:54;;;;;;;21.67;12.00;;;12.30;99.90;;;;;;5075797;28;20182;-90
2021/10/31 02:50:25;;;;;;;19.27;11.30;;;12.30;99.90;;;;;;5052923;28;20185;-90
2021/10/31 02:53:09;;;;;;;18.63;11.40;;;12.30;99.90;;;;;;5075765;28;20218;-89
2021/10/31 02:55:43;;;;;;;20.10;12.30;;;12.40;99.90;;;;;;5053880;28;20664;-90
2021/10/31 02:58:33;;;;;;;22.10;12.10;;;12.40;99.90;;;;;;5092384;28;20195;-91
2021/10/31 03:01:02;;;;;;;23.25;15.05;;;12.50;99.90;;;;;;5049745;28;20481;-90
2021/10/31 03:03:32;;;;;;;19.60;12.60;;;12.40;99.90;;;;;;5065053;28;20207;-91
2021/10/31 03:05:59;;;;;;;21.40;12.43;;;12.50;99.90;;;;;;5060418;28;20178;-90
2021/10/31 03:08:27;;;;;;;18.87;11.90;;;12.60;99.90;;;;;;5058846;28;20290;-91
2021/10/31 03:10:58;;;;;;;22.30;12.20;;;12.60;99.90;;;;;;5057215;28;20183;-90
2021/10/31 03:13:26;;;;;;;22.07;12.53;;;12.60;99.90;;;;;;5073362;28;20665;-91
2021/10/31 03:15:52;;;;;;;22.53;12.77;;;12.60;99.90;;;;;;5061811;28;20190;-89
2021/10/31 03:18:18;;;;;;;21.70;12.20;;;12.60;99.90;;;;;;5057092;28;20211;-89
2021/10/31 03:20:44;;;;;;;17.90;11.83;;;12.50;99.90;;;;;;5057303;28;20638;-90
2021/10/31 03:23:10;;;;;;;22.53;12.93;;;12.50;99.90;;;;;;5075248;28;20224;-88
2021/10/31 03:25:36;;;;;;;23.30;12.87;;;12.50;99.90;;;;;;5076492;28;20199;-88
2021/10/31 03:28:02;;;;;;;25.63;12.77;;;12.50;99.90;;;;;;5093169;28;20269;-88
2021/10/31 03:30:29;;;;;;;20.97;12.13;;;12.50;99.90;;;;;;5075864;28;20255;-89
2021/10/31 03:32:54;;;;;;;21.37;12.60;;;12.40;99.90;;;;;;5058999;28;20190;-89
2021/10/31 03:35:20;;;;;;;19.77;11.70;;;12.40;99.90;;;;;;5075183;28;20184;-89
2021/10/31 03:37:46;;;;;;;20.20;11.67;;;12.30;99.90;;;;;;5074887;28;20242;-89
2021/10/31 03:40:12;;;;;;;22.13;12.27;;;12.20;99.90;;;;;;5060653;28;20186;-88
2021/10/31 03:42:38;;;;;;;24.37;12.90;;;12.20;99.90;;;;;;5092275;28;20179;-87
2021/10/31 03:45:06;;;;;;;21.97;13.03;;;12.20;99.90;;;;;;5059853;28;20505;-89
2021/10/31 03:47:34;;;;;;;26.67;13.93;;;12.30;99.90;;;;;;5066215;28;20183;-89
2021/10/31 03:50:00;;;;;;;24.20;13.63;;;12.30;99.90;;;;;;5081560;28;20197;-88
2021/10/31 03:52:26;;;;;;;25.57;13.70;;;12.30;99.90;;;;;;5063441;28;20197;-90
2021/10/31 03:54:52;;;;;;;26.03;14.60;;;12.40;99.90;;;;;;5065260;28;20183;-89
2021/10/31 03:57:18;;;;;;;23.17;14.00;;;12.30;99.90;;;;;;5079944;28;20187;-88
2021/10/31 03:59:44;;;;;;;26.30;14.33;;;12.30;99.90;;;;;;5064772;28;20257;-88
2021/10/31 04:02:10;;;;;;;24.60;13.93;;;12.30;99.90;;;;;;5080866;28;20279;-87
2021/10/31 04:04:36;;;;;;;28.57;14.93;;;12.40;99.90;;;;;;5079629;28;20220;-88
2021/10/31 04:07:02;;;;;;;25.07;14.90;;;12.30;99.90;;;;;;5064742;28;20661;-88
2021/10/31 04:09:27;;;;;;;26.80;15.40;;;12.30;99.90;;;;;;5063921;28;20299;-88
2021/10/31 04:11:53;;;;;;;29.40;15.90;;;12.30;99.90;;;;;;5064917;28;20237;-88
2021/10/31 04:14:19;;;;;;;28.83;15.33;;;12.50;99.90;;;;;;5081272;28;20185;-88
2021/10/31 04:16:45;;;;;;;30.43;16.10;;;12.50;99.90;;;;;;5082648;28;20179;-88
2021/10/31 04:19:11;;;;;;;27.43;15.60;;;12.50;99.90;;;;;;5081656;28;20194;-88
2021/10/31 04:21:37;;;;;;;32.23;16.03;;;12.40;99.90;;;;;;5065688;28;20190;-89
2021/10/31 04:24:03;;;;;;;30.27;16.20;;;12.40;99.90;;;;;;5064273;28;20277;-88
2021/10/31 04:26:28;;;;;;;32.03;15.97;;;12.40;99.90;;;;;;5065069;28;20190;-88
2021/10/31 04:28:54;;;;;;;29.03;15.93;;;12.40;99.90;;;;;;5065903;28;20179;-88
2021/10/31 04:31:20;;;;;;;29.13;15.73;;;12.50;99.90;;;;;;5065466;28;20183;-89
2021/10/31 04:33:45;;;;;;;28.30;15.47;;;12.40;99.90;;;;;;5081960;28;20663;-87
2021/10/31 04:36:11;;;;;;;31.03;17.00;;;12.50;99.90;;;;;;5081424;28;20197;-88
2021/10/31 04:38:37;;;;;;;28.57;16.70;;;12.50;99.90;;;;;;5065234;28;20321;-89
2021/10/31 04:41:05;;;;;;;32.20;16.77;;;12.50;99.90;;;;;;5099311;28;20176;-88
2021/10/31 04:43:31;;;;;;;32.67;17.13;;;12.50;99.90;;;;;;5081135;28;20925;-89
2021/10/31 04:45:57;;;;;;;31.07;17.07;;;12.40;99.90;;;;;;5062865;28;20633;-87
2021/10/31 04:48:24;;;;;;;31.57;16.77;;;12.40;99.90;;;;;;5064806;28;20179;-88
2021/10/31 04:50:52;;;;;;;33.40;16.20;;;12.30;99.90;;;;;;5081736;28;20216;-89
2021/10/31 04:53:17;;;;;;;28.63;15.80;;;12.30;99.90;;;;;;5100684;28;20189;-89
2021/10/31 04:55:43;;;;;;;29.43;15.20;;;12.30;99.90;;;;;;5082238;28;20569;-89
2021/10/31 04:58:10;;;;;;;32.20;16.17;;;12.30;99.90;;;;;;5079130;28;20273;-88
2021/10/31 05:00:37;;;;;;;32.53;19.20;;;12.30;99.90;;;;;;5076606;28;20431;-90
2021/10/31 05:03:03;;;;;;;29.67;16.13;;;12.30;99.90;;;;;;5077876;28;20207;-90
2021/10/31 05:05:31;;;;;;;29.00;15.83;;;12.40;99.90;;;;;;5080321;28;20208;-89
2021/10/31 05:07:58;;;;;;;28.60;15.30;;;12.40;99.90;;;;;;5077342;28;20236;-89
2021/10/31 05:10:25;;;;;;;28.87;15.60;;;12.40;99.90;;;;;;5061907;28;20229;-89
2021/10/31 05:12:52;;;;;;;28.40;15.17;;;12.50;99.90;;;;;;5079049;28;20211;-89
2021/10/31 05:15:18;;;;;;;30.53;15.23;;;12.40;99.90;;;;;;5095128;28;20237;-89
2021/10/31 05:17:45;;;;;;;31.77;16.97;;;12.50;99.90;;;;;;5065333;28;20233;-90
2021/10/31 05:20:13;;;;;;;27.77;14.93;;;12.40;99.90;;;;;;5061878;28;20271;-90
2021/10/31 05:22:39;;;;;;;28.20;14.73;;;12.40;99.90;;;;;;5077454;28;20282;-88
2021/10/31 05:25:06;;;;;;;25.93;14.40;;;12.40;99.90;;;;;;5092469;28;20214;-89
2021/10/31 05:27:33;;;;;;;26.70;14.23;;;12.40;99.90;;;;;;5076473;28;20194;-89
2021/10/31 05:29:59;;;;;;;27.40;14.50;;;12.40;99.90;;;;;;5060555;28;20179;-90
2021/10/31 05:32:31;;;;;;;25.07;14.40;;;12.30;99.90;;;;;;5077464;28;20185;-89
2021/10/31 05:34:57;;;;;;;25.90;13.60;;;12.30;99.90;;;;;;5079970;28;20193;-90
2021/10/31 05:37:23;;;;;;;26.93;14.00;;;12.30;99.90;;;;;;5097793;28;20250;-91
2021/10/31 05:39:49;;;;;;;23.47;13.20;;;12.30;99.90;;;;;;5080859;28;20193;-89
2021/10/31 05:42:14;;;;;;;21.87;13.00;;;12.30;99.90;;;;;;5079376;28;20204;-90
2021/10/31 05:44:40;;;;;;;26.17;13.73;;;12.40;99.90;;;;;;5082268;28;20232;-90
2021/10/31 05:47:06;;;;;;;22.30;13.40;;;12.30;99.90;;;;;;5080049;28;20183;-90
2021/10/31 05:49:33;;;;;;;23.27;12.67;;;12.30;99.90;;;;;;5062753;28;20264;-89
2021/10/31 05:51:59;;;;;;;22.40;12.30;;;12.40;99.90;;;;;;5099587;28;20179;-90
2021/10/31 05:54:24;;;;;;;23.63;12.57;;;12.40;99.90;;;;;;5062842;28;20312;-89
2021/10/31 05:56:50;;;;;;;22.37;12.90;;;12.50;99.90;;;;;;5062068;28;20212;-89
2021/10/31 05:59:16;;;;;;;24.93;11.73;;;12.40;99.90;;;;;;5065119;28;20192;-90
2021/10/31 06:01:41;;;;;;;19.00;11.57;;;12.40;99.90;;;;;;5060926;28;20239;-89
2021/10/31 06:04:07;;;;;;;19.50;11.93;;;12.30;99.90;;;;;;5063237;28;20225;-90
2021/10/31 06:06:34;;;;;;;26.20;12.30;;;12.30;99.90;;;;;;5063236;28;20206;-90
2021/10/31 06:08:59;;;;;;;24.07;12.30;;;12.30;99.90;;;;;;5063582;28;20187;-86
2021/10/31 06:11:26;;;;;;;20.10;12.03;;;12.40;99.90;;;;;;5077278;28;20182;-90
2021/10/31 06:13:55;;;;;;;21.37;12.37;;;12.40;99.90;;;;;;5054831;28;20179;-90
2021/10/31 06:16:21;;;;;;;22.60;12.30;;;12.40;99.90;;;;;;5060264;28;20205;-89
2021/10/31 06:18:47;;;;;;;22.80;12.30;;;12.50;99.90;;;;;;5076386;28;20592;-89
2021/10/31 06:21:13;;;;;;;25.70;12.37;;;12.50;99.90;;;;;;5077801;28;20653;-91
2021/10/31 06:23:39;;;;;;;20.37;12.17;;;12.40;99.90;;;;;;5073721;28;20210;-91
2021/10/31 06:26:05;;;;;;;20.70;11.67;;;12.40;99.90;;;;;;5061168;28;20189;-89
2021/10/31 06:28:30;;;;;;;20.23;12.00;;;12.40;99.90;;;;;;5058443;28;20184;-91
2021/10/31 06:30:56;;;;;;;20.10;11.60;;;12.40;99.90;;;;;;5076842;28;20190;-90
2021/10/31 06:33:22;;;;;;;19.30;11.40;;;12.40;99.90;;;;;;5059246;28;20191;-89
2021/10/31 06:35:48;;;;;;;22.53;11.57;;;12.40;99.90;;;;;;5077077;28;20228;-90
2021/10/31 06:38:15;;;;;;;20.50;11.70;;;12.40;99.90;;;;;;5059987;28;20251;-89
2021/10/31 06:40:40;;;;;;;19.37;10.13;;;12.40;99.90;;;;;;5058389;28;21100;-89
2021/10/31 06:43:06;;;;;;;15.97;9.77;;;12.30;99.90;;;;;;5077509;28;20212;-89
2021/10/31 06:45:32;;;;;;;17.43;9.70;;;12.40;99.90;;;;;;5093778;28;20190;-90
2021/10/31 06:47:57;;;;;;;16.10;9.17;;;12.40;99.90;;;;;;5056915;28;20202;-89
2021/10/31 06:50:23;;;;;;;16.03;8.60;;;12.50;99.90;;;;;;5058038;28;20183;-89
2021/10/31 06:52:50;;;;;;;13.90;7.93;;;12.50;99.90;;;;;;5074914;28;20246;-89
2021/10/31 06:55:16;;;;;;;13.97;7.80;;;12.50;99.90;;;;;;5076380;28;20636;-89
2021/10/31 06:57:42;;;;;;;15.00;8.27;;;12.50;99.90;;;;;;5076689;28;20183;-89
2021/10/31 07:00:09;;;;;;;12.90;7.70;;;12.60;99.90;;;;;;5061129;28;20186;-89
2021/10/31 07:02:35;;;;;;;15.03;8.00;;;12.60;99.90;;;;;;5074810;28;20220;-89
2021/10/31 07:05:01;;;;;;;12.57;7.07;;;12.50;99.90;;;;;;5078022;28;20214;-89
2021/10/31 07:07:27;;;;;;;12.20;7.33;;;12.60;99.90;;;;;;5077755;28;20278;-89
2021/10/31 07:09:52;;;;;;;13.80;7.37;;;12.60;99.90;;;;;;5059516;28;20196;-90
2021/10/31 07:12:18;;;;;;;14.17;7.80;;;12.70;99.90;;;;;;5060748;28;20182;-88
2021/10/31 07:14:44;;;;;;;14.50;7.80;;;12.80;99.90;;;;;;5075503;28;20194;-90
2021/10/31 07:17:11;;;;;;;15.03;7.77;;;12.80;99.90;;;;;;5059452;28;20528;-90
2021/10/31 07:19:36;;;;;;;12.03;6.90;;;12.90;99.90;;;;;;5058304;28;20183;-90
2021/10/31 07:22:03;;;;;;;14.03;7.27;;;12.90;99.90;;;;;;5074718;28;20195;-89
2021/10/31 07:24:28;;;;;;;12.77;7.37;;;13.00;99.90;;;;;;5058602;28;20210;-90
2021/10/31 07:26:54;;;;;;;15.77;7.40;;;13.00;99.90;;;;;;5072684;28;20183;-89
2021/10/31 07:29:20;;;;;;;12.87;6.53;;;13.10;99.90;;;;;;5059423;28;20170;-90
2021/10/31 07:31:48;;;;;;;11.97;6.73;;;13.00;99.90;;;;;;5055559;28;20278;-89
2021/10/31 07:34:14;;;;;;;13.67;6.13;;;13.10;99.90;;;;;;5060881;28;20225;-89
2021/10/31 07:36:41;;;;;;;12.07;5.77;;;13.20;99.90;;;;;;5060036;28;20183;-88
2021/10/31 07:39:12;;;;;;;11.50;5.10;;;13.10;99.90;;;;;;5075177;28;20234;-88
2021/10/31 07:41:38;;;;;;;12.70;5.43;;;13.30;99.90;;;;;;5076531;28;20232;-90
2021/10/31 07:44:08;;;;;;;12.20;5.20;;;13.40;99.90;;;;;;5074157;28;20755;-90
2021/10/31 07:46:34;;;;;;;10.73;5.10;;;13.40;99.90;;;;;;5075145;28;20539;-89
2021/10/31 07:49:01;;;;;;;10.07;4.77;;;13.40;99.90;;;;;;5075600;28;20660;-89
2021/10/31 07:51:27;;;;;;;11.67;4.53;;;13.40;99.90;;;;;;5074517;28;20186;-89
2021/10/31 07:53:52;;;;;;;10.70;4.40;;;13.40;99.90;;;;;;5076011;28;20270;-89
2021/10/31 07:56:21;;;;;;;11.60;4.33;;;13.40;99.90;;;;;;5075127;28;20175;-88
2021/10/31 07:58:52;;;;;;;9.83;4.20;;;13.40;99.90;;;;;;5075908;28;20255;-88
2021/10/31 08:01:17;;;;;;;8.77;3.97;;;13.50;99.90;;;;;;5074373;28;20191;-90
2021/10/31 08:03:44;;;;;;;8.77;3.67;;;13.50;99.90;;;;;;5059140;28;20210;-90
2021/10/31 08:06:10;;;;;;;6.67;3.60;;;13.50;99.90;;;;;;5075585;28;20214;-89
2021/10/31 08:08:35;;;;;;;10.10;3.63;;;13.50;99.90;;;;;;5074705;28;20550;-88
2021/10/31 08:11:01;;;;;;;9.47;4.27;;;13.70;99.90;;;;;;5059746;28;20177;-89
2021/10/31 08:13:30;;;;;;;10.10;3.80;;;13.60;99.90;;;;;;5055743;28;20214;-89
2021/10/31 08:15:56;;;;;;;8.00;3.40;;;13.60;99.90;;;;;;5092979;28;20199;-88
2021/10/31 08:18:24;;;;;;;6.63;3.60;;;13.70;99.90;;;;;;5057318;28;20519;-89
2021/10/31 08:20:50;;;;;;;9.47;3.73;;;13.90;99.90;;;;;;5074788;28;20284;-88
2021/10/31 08:23:16;;;;;;;7.80;3.13;;;14.00;99.90;;;;;;5075418;28;20200;-90
2021/10/31 08:25:43;;;;;;;7.23;3.10;;;14.20;99.90;;;;;;5060337;28;20183;-88
2021/10/31 08:28:10;;;;;;;7.67;3.10;;;14.30;99.90;;;;;;5058785;28;20181;-89
2021/10/31 08:30:37;;;;;;;6.27;3.00;;;14.30;99.90;;;;;;5077231;28;20241;-89
2021/10/31 08:33:07;;;;;;;6.90;2.70;;;14.40;99.90;;;;;;5063567;28;20176;-90
2021/10/31 08:35:34;;;;;;;9.47;2.90;;;14.60;99.90;;;;;;5078948;28;20268;-90
2021/10/31 08:38:02;;;;;;;6.00;2.23;;;14.70;99.90;;;;;;5062589;28;20363;-89
2021/10/31 08:40:27;;;;;;;6.07;2.53;;;14.80;99.90;;;;;;5078176;28;20192;-89
2021/10/31 08:42:53;;;;;;;6.87;2.30;;;14.90;99.90;;;;;;5077771;28;20208;-88
2021/10/31 08:45:19;;;;;;;10.37;2.47;;;14.90;99.90;;;;;;5095974;28;20252;-88
2021/10/31 08:47:45;;;;;;;6.03;2.17;;;14.90;99.90;;;;;;5078818;28;20185;-88
2021/10/31 08:50:10;;;;;;;8.07;2.30;;;14.90;99.90;;;;;;5062842;28;20185;-89
2021/10/31 08:52:42;;;;;;;5.47;1.80;;;15.00;99.90;;;;;;5078366;28;20648;-88
2021/10/31 08:55:08;;;;;;;5.63;2.00;;;15.00;99.90;;;;;;5076609;28;20633;-87
2021/10/31 08:57:34;;;;;;;6.30;2.10;;;15.00;99.90;;;;;;5063549;28;20209;-88
2021/10/31 09:00:00;;;;;;;5.33;1.80;;;15.00;99.90;;;;;;5097622;28;20186;-90
2021/10/31 09:02:27;;;;;;;4.33;1.50;;;15.10;99.90;;;;;;5078950;28;20279;-89
2021/10/31 09:04:53;;;;;;;6.70;1.63;;;15.20;99.90;;;;;;5077734;28;20214;-90
2021/10/31 09:07:19;;;;;;;5.50;1.50;;;15.30;99.90;;;;;;5060127;28;20718;-89
2021/10/31 09:09:45;;;;;;;6.57;1.90;;;15.30;99.90;;;;;;5078241;28;20572;-90
2021/10/31 09:12:12;;;;;;;7.57;1.63;;;15.40;99.90;;;;;;5061532;28;20185;-87
2021/10/31 09:14:39;;;;;;;5.97;1.30;;;15.50;99.90;;;;;;5076525;28;20200;-88
2021/10/31 09:17:05;;;;;;;5.67;1.63;;;15.60;99.90;;;;;;5075741;28;20197;-87
2021/10/31 09:19:31;;;;;;;7.83;1.70;;;15.80;99.90;;;;;;5060861;28;20198;-87
2021/10/31 09:21:56;;;;;;;9.37;2.67;;;15.80;99.90;;;;;;5062755;28;20190;-86
2021/10/31 09:24:22;;;;;;;5.70;1.60;;;15.90;99.90;;;;;;5062480;28;20573;-86
2021/10/31 09:26:48;;;;;;;4.60;1.37;;;16.00;99.90;;;;;;5057720;28;20183;-87
2021/10/31 09:29:14;;;;;;;5.10;1.20;;;16.10;99.90;;;;;;5055948;28;20182;-86
2021/10/31 09:31:40;;;;;;;3.87;0.90;;;16.20;99.90;;;;;;5060812;28;20556;-87
2021/10/31 09:34:06;;;;;;;2.90;0.93;;;16.00;99.90;;;;;;5068279;28;20192;-86
2021/10/31 09:36:35;;;;;;;3.00;0.90;;;15.90;99.90;;;;;;5076936;28;20183;-88
2021/10/31 09:39:06;;;;;;;3.60;0.90;;;15.90;99.90;;;;;;5078033;28;20308;-86
2021/10/31 09:41:33;;;;;;;2.47;1.00;;;16.10;99.90;;;;;;5077363;28;20653;-86
2021/10/31 09:46:45;;;;;;;3.57;0.97;;;16.30;99.90;;;;;;5094062;28;20188;-87
2021/10/31 09:49:13;;;;;;;3.37;0.90;;;16.30;99.90;;;;;;5060108;28;20232;-86
2021/10/31 09:51:41;;;;;;;1.43;0.60;;;16.40;99.90;;;;;;5076488;28;20187;-86
2021/10/31 09:54:09;;;;;;;4.30;0.87;;;16.50;99.90;;;;;;5059226;28;20221;-86
2021/10/31 09:56:37;;;;;;;4.47;0.80;;;16.70;99.90;;;;;;5062464;28;20218;-88
2021/10/31 09:59:04;;;;;;;2.50;0.70;;;16.80;99.90;;;;;;5076820;28;20192;-86
2021/10/31 10:02:11;;;;;;;3.47;0.70;;;17.00;99.90;;;;;;5077261;28;20193;-87
2021/10/31 10:04:49;;;;;;;4.30;0.80;;;17.00;99.90;;;;;;5060084;28;20224;-85
2021/10/31 10:07:17;;;;;;;4.33;0.70;;;17.10;99.90;;;;;;5058863;28;20745;-87
2021/10/31 10:09:54;;;;;;;3.63;0.90;;;16.90;99.90;;;;;;5077146;28;20183;-87
2021/10/31 10:12:22;;;;;;;3.47;0.87;;;17.00;99.90;;;;;;5062265;28;20275;-86
2021/10/31 10:14:56;;;;;;;2.47;0.60;;;17.10;99.90;;;;;;5077288;28;20265;-86
2021/10/31 10:17:22;;;;;;;2.43;0.70;;;17.20;99.90;;;;;;5059931;28;20567;-87
2021/10/31 10:19:52;;;;;;;3.10;0.90;;;17.20;99.90;;;;;;5077787;28;20188;-86
2021/10/31 10:22:19;;;;;;;3.10;0.87;;;17.00;99.90;;;;;;5073055;28;20192;-88
2021/10/31 10:25:00;;;;;;;5.67;1.20;;;16.90;99.90;;;;;;5076930;28;20679;-86
2021/10/31 10:27:29;;;;;;;4.27;1.00;;;16.80;99.90;;;;;;5075784;28;20240;-87
2021/10/31 10:29:56;;;;;;;4.33;1.07;;;16.70;99.90;;;;;;5090003;28;20193;-86
2021/10/31 10:32:25;;;;;;;3.70;0.87;;;16.60;99.90;;;;;;5079766;28;20182;-87
2021/10/31 10:34:56;;;;;;;4.53;0.93;;;16.70;99.90;;;;;;5060016;28;20717;-86
2021/10/31 10:37:27;;;;;;;3.77;0.80;;;16.70;99.90;;;;;;5058725;28;20182;-87
2021/10/31 10:39:55;;;;;;;5.63;0.90;;;16.80;99.90;;;;;;5076086;28;20207;-86
2021/10/31 10:42:28;;;;;;;4.83;1.03;;;16.80;99.90;;;;;;5073810;28;20559;-85
2021/10/31 10:44:57;;;;;;;8.17;1.03;;;16.90;99.90;;;;;;5077166;28;20204;-87
2021/10/31 10:47:24;;;;;;;3.70;1.00;;;16.80;99.90;;;;;;5075066;28;20338;-89
2021/10/31 10:49:52;;;;;;;2.17;0.80;;;16.90;99.90;;;;;;5076759;28;20174;-85
2021/10/31 10:52:27;;;;;;;3.73;1.00;;;17.00;99.90;;;;;;5075744;28;20638;-86
2021/10/31 10:54:59;;;;;;;6.00;1.20;;;17.00;99.90;;;;;;5093081;28;20182;-84
2021/10/31 10:57:27;;;;;;;2.80;0.90;;;17.10;99.90;;;;;;5094317;28;20251;-85
2021/10/31 10:59:56;;;;;;;3.20;0.87;;;17.10;99.90;;;;;;5074874;28;20213;-85
2021/10/31 11:02:23;;;;;;;7.67;1.30;;;17.10;99.90;;;;;;5075642;28;20558;-85
2021/10/31 11:04:58;;;;;;;5.63;2.23;;;17.10;99.90;;;;;;5076251;28;20682;-86
2021/10/31 11:07:34;;;;;;;2.90;1.07;;;17.20;99.90;;;;;;5061162;28;20180;-87
2021/10/31 11:10:01;;;;;;;4.80;1.53;;;17.40;99.90;;;;;;5068160;28;20252;-86
2021/10/31 11:12:35;;;;;;;4.10;1.70;;;17.60;99.90;;;;;;5059828;28;20666;-87
2021/10/31 11:15:13;;;;;;;7.57;2.37;;;17.60;99.90;;;;;;5075698;28;20186;-86
2021/10/31 11:17:40;;;;;;;6.37;1.20;;;17.70;99.90;;;;;;5073791;28;20661;-86
2021/10/31 11:20:08;;;;;;;4.63;2.70;;;17.70;99.90;;;;;;5059940;28;20682;-86
2021/10/31 11:22:36;;;;;;;6.70;4.67;;;17.70;99.90;;;;;;5074517;28;20261;-87
2021/10/31 11:25:03;;;;;;;21.37;18.93;;;17.80;99.90;;;;;;5094483;28;20281;-87
2021/10/31 11:27:31;;;;;;;12.50;7.17;;;17.90;99.90;;;;;;5056287;28;20191;-86
2021/10/31 11:29:58;;;;;;;3.90;1.00;;;18.10;99.90;;;;;;5055863;28;20186;-86
2021/10/31 11:32:26;;;;;;;18.27;13.00;;;18.10;99.90;;;;;;5074770;28;20208;-85
2021/10/31 11:34:56;;;;;;;14.90;11.23;;;18.10;99.90;;;;;;5092840;28;20193;-87
2021/10/31 11:37:26;;;;;;;17.97;13.73;;;18.30;99.90;;;;;;5074541;28;20182;-86
2021/10/31 11:39:58;;;;;;;7.47;4.00;;;18.20;99.90;;;;;;5058081;28;20258;-87
2021/10/31 11:42:27;;;;;;;3.10;1.03;;;18.10;99.90;;;;;;5055766;28;20645;-86
2021/10/31 11:45:10;;;;;;;4.40;1.00;;;18.10;99.90;;;;;;5070831;28;20214;-86
2021/10/31 11:47:37;;;;;;;2.50;1.07;;;18.10;99.90;;;;;;5094137;28;20220;-87
2021/10/31 11:50:13;;;;;;;3.60;1.20;;;18.10;99.90;;;;;;5067537;28;20549;-86
2021/10/31 11:52:43;;;;;;;2.93;0.90;;;18.20;99.90;;;;;;5069646;28;20214;-85
2021/10/31 11:55:46;;;;;;;3.03;0.90;;;18.30;99.90;;;;;;5055289;28;20304;-85
2021/10/31 11:58:20;;;;;;;2.17;0.80;;;18.40;99.90;;;;;;5019087;28;20198;-86
2021/10/31 12:00:57;;;;;;;1.60;0.70;;;18.30;99.90;;;;;;5088823;28;20184;-85
2021/10/31 12:03:55;;;;;;;3.77;1.00;;;18.10;99.90;;;;;;5074271;28;20706;-85
2021/10/31 12:06:25;;;;;;;10.37;9.00;;;18.10;99.90;;;;;;5077485;28;20206;-85
2021/10/31 12:09:06;;;;;;;10.93;8.80;;;18.20;99.90;;;;;;5078141;28;20260;-86
2021/10/31 12:11:32;;;;;;;4.57;1.90;;;18.30;99.90;;;;;;5077646;28;20534;-86
2021/10/31 12:14:09;;;;;;;6.53;1.00;;;18.50;99.90;;;;;;5060551;28;20182;-86
2021/10/31 12:16:58;;;;;;;4.00;0.80;;;18.60;99.90;;;;;;5078516;28;20221;-85
2021/10/31 12:19:24;;;;;;;2.20;0.80;;;18.60;99.90;;;;;;5076004;28;20554;-83
2021/10/31 12:22:10;;;;;;;6.57;1.10;;;18.70;99.90;;;;;;5097137;28;20186;-85
2021/10/31 12:24:51;;;;;;;3.07;0.80;;;18.80;99.90;;;;;;5061795;28;20208;-86
2021/10/31 12:27:26;;;;;;;4.33;1.60;;;18.90;99.90;;;;;;5062280;28;20223;-85
2021/10/31 12:30:25;;;;;;;4.23;1.47;;;18.60;99.90;;;;;;5078264;28;20178;-85
2021/10/31 12:33:08;;;;;;;4.27;1.10;;;18.60;99.90;;;;;;5060383;28;20191;-87
2021/10/31 12:35:35;;;;;;;4.13;1.30;;;18.80;99.90;;;;;;5061829;28;20595;-84
2021/10/31 12:38:16;;;;;;;2.67;1.20;;;18.90;99.90;;;;;;5077888;28;20578;-84
2021/10/31 12:41:05;;;;;;;3.50;0.90;;;18.80;99.90;;;;;;5079492;28;20167;-84
2021/10/31 12:43:39;;;;;;;2.73;1.10;;;18.70;99.90;;;;;;5065911;28;20233;-86
2021/10/31 12:46:16;;;;;;;4.50;0.97;;;18.60;99.90;;;;;;5072155;28;20274;-84
2021/10/31 12:48:42;;;;;;;2.70;0.97;;;18.70;99.90;;;;;;5058339;28;20192;-85
2021/10/31 12:51:12;;;;;;;2.87;0.97;;;18.60;99.90;;;;;;5055936;28;20196;-84